Time;durP1;ratioP1;P1;durP2;ratioP2;P2;SDS_P1;SDS_P2;PMS_P1;PMS_P2;Temp;Humidity;BMP_temperature;BMP_pressure;BME280_temperature;BME280_humidity;BME280_pressure;Samples;Min_cycle;Max_cycle;Signal;HPM_P1;HPM_P2
2023/03/22 00:01:46;;;;;;;0.10;0.10;;;;;;;12.96;77.21;98042.94;7354413;19;20035;-58
2023/03/22 00:04:11;;;;;;;0.10;0.10;;;;;;;13.19;77.37;98076.13;7353633;19;20011;-58
2023/03/22 00:06:37;;;;;;;0.10;0.10;;;;;;;13.20;77.48;98075.19;7352216;19;20006;-58
2023/03/22 00:09:03;;;;;;;0.10;0.10;;;;;;;13.15;77.14;98079.94;7352508;19;20336;-58
2023/03/22 00:11:28;;;;;;;0.00;0.00;;;;;;;13.21;76.88;98070.75;7348626;19;20063;-58
2023/03/22 00:13:54;;;;;;;0.10;0.10;;;;;;;13.19;77.03;98078.75;7353787;19;20476;-58
2023/03/22 00:16:20;;;;;;;0.10;0.10;;;;;;;13.16;76.96;98078.97;7352921;19;20619;-58
2023/03/22 00:18:46;;;;;;;0.10;0.10;;;;;;;13.15;77.16;98061.59;7351975;19;20019;-58
2023/03/22 00:21:13;;;;;;;0.10;0.10;;;;;;;13.13;77.04;98076.59;7353942;19;20720;-58
2023/03/22 00:23:39;;;;;;;0.10;0.10;;;;;;;13.12;77.47;98071.44;7353452;19;20010;-58
2023/03/22 00:26:05;;;;;;;0.10;0.10;;;;;;;13.01;77.42;98053.91;7353975;19;20023;-58
2023/03/22 00:28:31;;;;;;;0.10;0.10;;;;;;;13.10;77.40;98063.72;7351057;19;20018;-58
2023/03/22 00:30:58;;;;;;;0.10;0.10;;;;;;;13.11;77.50;98062.75;7354185;19;20014;-58
2023/03/22 00:33:25;;;;;;;0.10;0.10;;;;;;;13.09;77.22;98042.88;7350253;19;20363;-57
2023/03/22 00:36:07;;;;;;;0.10;0.10;;;;;;;13.09;77.20;98093.50;7353799;19;20017;-56
2023/03/22 00:38:35;;;;;;;0.00;0.00;;;;;;;13.07;77.75;98074.41;7350853;19;20018;-57
2023/03/22 00:41:07;;;;;;;0.00;0.00;;;;;;;13.07;77.19;98105.03;7355260;19;20022;-57
2023/03/22 00:43:33;;;;;;;0.10;0.10;;;;;;;12.94;77.65;98081.53;7349961;19;20018;-58
2023/03/22 00:45:58;;;;;;;0.00;0.00;;;;;;;13.01;77.17;98084.53;7358810;19;20582;-59
2023/03/22 00:48:23;;;;;;;0.10;0.10;;;;;;;12.99;77.04;98097.75;7359319;19;20014;-58
2023/03/22 00:50:49;;;;;;;0.10;0.10;;;;;;;12.94;77.56;98107.72;7356682;19;20361;-58
2023/03/22 00:53:14;;;;;;;0.03;0.03;;;;;;;12.94;77.01;98105.09;7357081;19;20010;-58
2023/03/22 00:55:40;;;;;;;0.00;0.00;;;;;;;12.96;77.06;98145.13;7358683;19;20014;-58
2023/03/22 00:58:05;;;;;;;0.10;0.10;;;;;;;12.88;76.16;98132.59;7359152;19;20027;-59
2023/03/22 01:00:32;;;;;;;0.10;0.10;;;;;;;12.83;75.68;98154.84;7359768;19;20017;-58
2023/03/22 01:02:58;;;;;;;0.10;0.10;;;;;;;12.78;74.72;98167.41;7355726;19;20010;-58
2023/03/22 01:05:24;;;;;;;0.10;0.10;;;;;;;12.68;74.24;98136.66;7359521;19;20014;-58
2023/03/22 01:07:50;;;;;;;0.10;0.10;;;;;;;12.57;73.82;98152.31;7354095;19;20011;-58
2023/03/22 01:10:17;;;;;;;0.00;0.00;;;;;;;12.45;73.71;98167.09;7359133;19;20652;-58
2023/03/22 01:12:42;;;;;;;0.00;0.00;;;;;;;12.35;73.80;98170.47;7358513;19;20892;-57
2023/03/22 01:15:08;;;;;;;0.10;0.10;;;;;;;12.22;73.75;98160.03;7358459;19;20022;-58
2023/03/22 01:17:34;;;;;;;0.08;0.08;;;;;;;12.06;74.00;98165.47;7359805;19;20019;-58
2023/03/22 01:19:59;;;;;;;0.10;0.10;;;;;;;12.00;74.16;98194.66;7354293;19;20475;-58
2023/03/22 01:22:25;;;;;;;0.00;0.00;;;;;;;11.82;74.24;98180.25;7357927;19;20790;-58
2023/03/22 01:24:50;;;;;;;0.10;0.10;;;;;;;11.83;74.50;98202.84;7358703;19;20018;-58
2023/03/22 01:27:16;;;;;;;0.10;0.10;;;;;;;11.73;74.62;98214.81;7356756;19;20011;-58
2023/03/22 01:29:41;;;;;;;0.00;0.00;;;;;;;11.66;74.49;98210.00;7357008;19;20601;-58
2023/03/22 01:32:07;;;;;;;0.10;0.10;;;;;;;11.62;74.03;98200.69;7356481;19;20010;-59
2023/03/22 01:34:32;;;;;;;0.03;0.03;;;;;;;11.58;74.09;98211.47;7354520;19;20530;-59
2023/03/22 01:36:58;;;;;;;0.00;0.00;;;;;;;11.39;74.07;98227.50;7359982;19;20007;-58
2023/03/22 01:39:23;;;;;;;0.03;0.03;;;;;;;11.49;73.34;98239.03;7357098;19;20022;-59
2023/03/22 01:41:49;;;;;;;0.00;0.00;;;;;;;11.39;73.34;98237.97;7355408;19;20030;-58
2023/03/22 01:44:17;;;;;;;0.10;0.10;;;;;;;11.34;73.18;98229.59;7356135;19;20018;-58
2023/03/22 01:46:45;;;;;;;0.10;0.10;;;;;;;11.26;72.43;98237.94;7358108;19;20023;-59
2023/03/22 01:49:15;;;;;;;0.10;0.10;;;;;;;11.08;71.93;98229.50;7357858;19;20011;-58
2023/03/22 01:51:43;;;;;;;0.10;0.10;;;;;;;11.10;71.86;98285.09;7353204;19;20041;-58
2023/03/22 01:54:15;;;;;;;0.10;0.10;;;;;;;11.03;71.95;98260.28;7355015;19;20014;-59
2023/03/22 01:56:41;;;;;;;0.00;0.00;;;;;;;10.96;71.59;98258.19;7349758;19;20018;-59
2023/03/22 01:59:10;;;;;;;0.00;0.00;;;;;;;10.88;71.56;98279.53;7356613;19;20153;-59
2023/03/22 02:01:36;;;;;;;0.00;0.00;;;;;;;10.79;71.26;98280.94;7349323;19;20014;-59
2023/03/22 02:04:15;;;;;;;0.00;0.00;;;;;;;10.75;71.56;98283.88;7356743;19;20010;-58
2023/03/22 02:06:41;;;;;;;0.00;0.00;;;;;;;10.64;71.05;98284.50;7352363;19;20094;-59
2023/03/22 02:09:10;;;;;;;0.10;0.10;;;;;;;10.56;71.45;98292.81;7357793;19;20014;-59
2023/03/22 02:11:37;;;;;;;0.00;0.00;;;;;;;10.52;71.30;98306.97;7356052;19;20233;-59
2023/03/22 02:14:10;;;;;;;0.00;0.00;;;;;;;10.43;71.79;98304.91;7352405;19;20560;-58
2023/03/22 02:16:48;;;;;;;0.00;0.00;;;;;;;10.37;71.80;98300.06;7352670;19;20007;-59
2023/03/22 02:19:52;;;;;;;0.00;0.00;;;;;;;10.32;72.41;98333.41;7356233;19;20047;-59
2023/03/22 02:22:56;;;;;;;0.00;0.00;;;;;;;10.25;72.59;98311.25;7255280;19;2004345;-59
2023/03/22 02:25:46;;;;;;;0.10;0.10;;;;;;;10.21;72.12;98325.38;7253524;19;2004510;-59
2023/03/22 02:28:24;;;;;;;0.10;0.10;;;;;;;10.12;72.24;98335.41;7353858;19;20089;-59
2023/03/22 02:31:07;;;;;;;0.00;0.00;;;;;;;10.07;72.31;98332.22;7357035;19;20014;-59
2023/03/22 02:33:56;;;;;;;0.00;0.00;;;;;;;10.02;72.66;98349.91;7350012;19;20031;-58
2023/03/22 02:36:43;;;;;;;0.00;0.00;;;;;;;9.99;72.52;98357.91;7355480;19;20014;-59
2023/03/22 02:39:39;;;;;;;0.00;0.00;;;;;;;9.94;72.64;98365.16;7354156;19;20025;-59
2023/03/22 02:42:10;;;;;;;0.00;0.00;;;;;;;9.87;72.86;98369.88;7252334;19;2004354;-59
2023/03/22 02:44:50;;;;;;;0.00;0.00;;;;;;;9.85;73.08;98376.13;7356980;19;20560;-59
2023/03/22 02:47:33;;;;;;;0.10;0.10;;;;;;;9.67;72.74;98356.28;7356509;19;20048;-59
2023/03/22 02:50:05;;;;;;;0.08;0.08;;;;;;;9.77;72.69;98386.13;7355875;19;20611;-59
2023/03/22 02:52:38;;;;;;;0.10;0.10;;;;;;;9.74;72.95;98394.13;7355875;19;20031;-59
2023/03/22 02:55:19;;;;;;;0.10;0.10;;;;;;;9.73;72.61;98389.81;7354831;19;20464;-59
2023/03/22 02:57:55;;;;;;;0.00;0.00;;;;;;;9.70;72.59;98393.47;7342452;19;20082;-59
2023/03/22 03:00:23;;;;;;;0.00;0.00;;;;;;;9.68;72.43;98399.66;7352535;19;20018;-58
2023/03/22 03:02:52;;;;;;;0.00;0.00;;;;;;;9.60;72.14;98411.38;7353501;19;20550;-59
2023/03/22 03:05:20;;;;;;;0.10;0.10;;;;;;;9.65;72.09;98420.69;7349001;19;20042;-58
2023/03/22 03:07:57;;;;;;;0.05;0.05;;;;;;;9.64;72.34;98445.09;7349555;19;20942;-58
2023/03/22 03:10:23;;;;;;;0.00;0.00;;;;;;;9.59;72.22;98420.13;7353160;19;20372;-59
2023/03/22 03:12:48;;;;;;;0.00;0.00;;;;;;;9.55;71.76;98431.63;7350568;19;20017;-59
2023/03/22 03:15:17;;;;;;;0.00;0.00;;;;;;;9.54;71.91;98435.16;7350915;19;20007;-58
2023/03/22 03:18:01;;;;;;;0.10;0.10;;;;;;;9.52;72.16;98428.34;7352436;19;20014;-58
2023/03/22 03:20:59;;;;;;;0.08;0.08;;;;;;;9.42;71.91;98428.00;7349199;19;20019;-58
2023/03/22 03:23:51;;;;;;;0.08;0.08;;;;;;;9.42;72.21;98446.22;7241934;19;2004541;-58
2023/03/22 03:26:37;;;;;;;0.00;0.00;;;;;;;9.39;72.46;98449.03;7350812;19;20035;-59
2023/03/22 03:29:18;;;;;;;0.00;0.00;;;;;;;9.36;72.45;98449.16;7351228;19;20629;-58
2023/03/22 03:31:51;;;;;;;0.00;0.00;;;;;;;9.31;72.53;98464.19;7349436;19;20021;-59
2023/03/22 03:34:23;;;;;;;0.00;0.00;;;;;;;9.27;72.54;98462.69;7352686;19;20021;-58
2023/03/22 03:37:07;;;;;;;0.00;0.00;;;;;;;9.25;72.54;98448.91;7352456;19;20026;-59
2023/03/22 03:39:38;;;;;;;0.08;0.08;;;;;;;9.22;72.43;98459.47;7350629;19;20011;-58
2023/03/22 03:42:05;;;;;;;0.00;0.00;;;;;;;9.20;71.95;98472.59;7350863;19;20866;-58
2023/03/22 03:44:34;;;;;;;0.00;0.00;;;;;;;9.15;72.66;98463.34;7353070;19;20884;-58
2023/03/22 03:47:01;;;;;;;0.00;0.00;;;;;;;9.13;72.69;98475.59;7351606;19;20018;-58
2023/03/22 03:49:27;;;;;;;0.00;0.00;;;;;;;9.03;72.98;98483.91;7348861;19;20013;-59
2023/03/22 03:51:54;;;;;;;0.00;0.00;;;;;;;9.06;72.67;98491.53;7346733;19;20010;-59
2023/03/22 03:54:21;;;;;;;0.00;0.00;;;;;;;8.90;72.77;98472.41;7349511;19;20010;-58
2023/03/22 03:56:47;;;;;;;0.10;0.10;;;;;;;9.01;72.69;98496.13;7351065;19;20022;-58
2023/03/22 03:59:14;;;;;;;0.00;0.00;;;;;;;8.96;73.01;98505.09;7352939;19;20765;-58
2023/03/22 04:01:48;;;;;;;0.00;0.00;;;;;;;8.98;72.78;98522.34;7351004;19;20499;-58
2023/03/22 04:04:15;;;;;;;0.10;0.10;;;;;;;8.96;72.91;98516.34;7329732;19;20011;-58
2023/03/22 04:06:41;;;;;;;0.08;0.08;;;;;;;8.88;72.67;98497.69;7354264;19;20340;-59
2023/03/22 04:09:07;;;;;;;0.00;0.00;;;;;;;8.51;72.90;98446.66;7348383;19;20434;-58
2023/03/22 04:11:32;;;;;;;0.00;0.00;;;;;;;8.89;72.48;98525.41;7354173;19;20092;-58
2023/03/22 04:13:58;;;;;;;0.10;0.10;;;;;;;8.62;72.64;98486.00;7350871;19;20076;-59
2023/03/22 04:16:23;;;;;;;0.05;0.05;;;;;;;8.87;72.65;98526.38;7350421;19;20010;-58
2023/03/22 04:18:49;;;;;;;0.10;0.10;;;;;;;8.84;72.10;98532.59;7353211;19;20473;-59
2023/03/22 04:21:15;;;;;;;0.00;0.00;;;;;;;8.81;72.23;98533.56;7336249;19;20060;-59
2023/03/22 04:23:40;;;;;;;0.00;0.00;;;;;;;8.76;72.06;98529.53;7354072;19;20014;-58
2023/03/22 04:26:06;;;;;;;0.00;0.00;;;;;;;8.78;71.75;98558.94;7357525;19;20031;-58
2023/03/22 04:28:32;;;;;;;0.10;0.10;;;;;;;8.76;71.40;98547.75;7358954;19;20021;-58
2023/03/22 04:30:58;;;;;;;0.00;0.00;;;;;;;8.73;71.81;98555.72;7361412;19;20104;-58
2023/03/22 04:33:25;;;;;;;0.05;0.05;;;;;;;8.71;71.87;98557.53;7356857;19;20038;-58
2023/03/22 04:35:55;;;;;;;0.00;0.00;;;;;;;8.68;71.76;98555.94;7359783;19;20022;-59
2023/03/22 04:38:21;;;;;;;0.00;0.00;;;;;;;8.67;72.11;98569.00;7358423;19;20492;-58
2023/03/22 04:40:46;;;;;;;0.00;0.00;;;;;;;8.51;71.53;98541.13;7359804;19;20550;-58
2023/03/22 04:43:14;;;;;;;0.10;0.10;;;;;;;8.63;71.53;98567.50;7359885;19;20559;-58
2023/03/22 04:45:40;;;;;;;;;;;;;;;8.64;71.61;98587.38;7359788;19;20053;-59
2023/03/22 04:48:06;;;;;;;0.00;0.00;;;;;;;8.60;71.75;98575.44;7359099;19;20534;-58
2023/03/22 04:50:32;;;;;;;0.10;0.10;;;;;;;8.58;71.24;98578.97;7358113;19;20002;-58
2023/03/22 04:52:57;;;;;;;0.08;0.08;;;;;;;8.53;71.25;98578.34;7357437;19;20010;-59
2023/03/22 04:55:22;;;;;;;0.00;0.00;;;;;;;8.53;71.80;98590.50;7358381;19;20035;-58
2023/03/22 04:57:48;;;;;;;0.00;0.00;;;;;;;8.51;71.39;98585.34;7358581;19;20102;-58
2023/03/22 05:00:14;;;;;;;0.00;0.00;;;;;;;8.47;70.57;98591.66;7357133;19;20094;-58
2023/03/22 05:02:39;;;;;;;0.00;0.00;;;;;;;8.38;71.18;98581.69;7354116;19;20023;-58
2023/03/22 05:05:05;;;;;;;0.00;0.00;;;;;;;8.45;71.18;98598.66;7354848;19;20011;-58
2023/03/22 05:07:31;;;;;;;0.00;0.00;;;;;;;8.45;70.86;98601.25;7358217;19;20443;-59
2023/03/22 05:09:57;;;;;;;0.00;0.00;;;;;;;8.43;71.15;98603.09;7361343;19;20028;-58
2023/03/22 05:12:22;;;;;;;0.10;0.10;;;;;;;8.42;70.50;98609.22;7357230;19;20006;-58
2023/03/22 05:14:47;;;;;;;0.00;0.00;;;;;;;8.35;71.20;98592.19;7358860;19;20018;-58
2023/03/22 05:17:13;;;;;;;0.00;0.00;;;;;;;8.40;71.27;98600.66;7359001;19;20007;-57
2023/03/22 05:19:38;;;;;;;0.00;0.00;;;;;;;8.40;71.41;98605.00;7360077;19;20412;-58
2023/03/22 05:22:04;;;;;;;0.00;0.00;;;;;;;8.40;71.75;98607.59;7359430;19;20582;-59
2023/03/22 05:24:30;;;;;;;0.00;0.00;;;;;;;8.39;71.21;98606.75;7357315;19;20006;-59
2023/03/22 05:26:55;;;;;;;0.00;0.00;;;;;;;8.39;71.29;98613.72;7355385;19;20722;-58
2023/03/22 05:29:21;;;;;;;0.00;0.00;;;;;;;8.37;71.11;98600.81;7359775;19;20105;-59
2023/03/22 05:31:47;;;;;;;0.00;0.00;;;;;;;8.37;70.73;98603.41;7360183;19;20411;-57
2023/03/22 05:34:12;;;;;;;0.08;0.08;;;;;;;8.37;70.80;98615.56;7358456;19;20006;-58
2023/03/22 05:36:38;;;;;;;0.00;0.00;;;;;;;8.36;70.83;98619.91;7358197;19;20025;-58
2023/03/22 05:39:04;;;;;;;0.10;0.10;;;;;;;8.36;71.07;98625.09;7358854;19;20022;-59
2023/03/22 05:41:32;;;;;;;0.10;0.10;;;;;;;8.36;70.79;98625.09;7359203;19;20798;-58
2023/03/22 05:43:59;;;;;;;0.00;0.00;;;;;;;8.23;70.88;98603.19;7357025;19;20010;-58
2023/03/22 05:46:24;;;;;;;0.00;0.00;;;;;;;8.21;70.85;98598.06;7358808;19;20019;-58
2023/03/22 05:48:50;;;;;;;0.00;0.00;;;;;;;8.36;70.63;98630.31;7356740;19;20655;-58
2023/03/22 05:51:18;;;;;;;0.08;0.08;;;;;;;8.35;70.87;98617.34;7358935;19;20827;-58
2023/03/22 05:53:47;;;;;;;0.00;0.00;;;;;;;8.36;70.83;98626.81;7353654;19;20390;-58
2023/03/22 05:56:13;;;;;;;0.08;0.08;;;;;;;8.35;70.79;98623.38;7360329;19;20214;-58
2023/03/22 05:58:40;;;;;;;0.00;0.00;;;;;;;8.35;70.65;98622.56;7353388;19;20046;-58
2023/03/22 06:01:11;;;;;;;0.00;0.00;;;;;;;8.34;70.18;98621.72;7360174;19;20015;-59
2023/03/22 06:03:37;;;;;;;0.00;0.00;;;;;;;8.35;70.56;98623.38;7356084;19;20466;-58
2023/03/22 06:06:05;;;;;;;0.10;0.10;;;;;;;8.34;70.25;98626.91;7353119;19;20011;-58
2023/03/22 06:08:32;;;;;;;0.05;0.05;;;;;;;8.34;70.53;98632.13;7356235;19;20026;-58
2023/03/22 06:10:58;;;;;;;0.00;0.00;;;;;;;8.33;70.02;98617.44;7359005;19;20026;-58
2023/03/22 06:13:24;;;;;;;0.03;0.03;;;;;;;8.35;70.04;98623.38;7355735;19;20760;-58
2023/03/22 06:15:49;;;;;;;0.10;0.10;;;;;;;8.35;70.06;98626.00;7360357;19;20047;-58
2023/03/22 06:18:15;;;;;;;0.05;0.05;;;;;;;8.36;69.58;98624.22;7356464;19;20051;-58
2023/03/22 06:20:41;;;;;;;0.00;0.00;;;;;;;8.36;69.18;98619.91;7359076;19;20019;-59
2023/03/22 06:23:07;;;;;;;0.10;0.10;;;;;;;8.37;69.31;98621.63;7356114;19;20014;-59
2023/03/22 06:25:32;;;;;;;0.00;0.00;;;;;;;8.37;69.03;98626.81;7355265;19;20609;-58
2023/03/22 06:27:58;;;;;;;0.00;0.00;;;;;;;8.37;68.84;98629.41;7356872;19;20358;-59
2023/03/22 06:30:24;;;;;;;0.10;0.10;;;;;;;8.39;68.73;98630.16;7349730;19;20801;-58
2023/03/22 06:32:49;;;;;;;0.00;0.00;;;;;;;8.41;68.24;98617.94;7355441;19;20031;-58
2023/03/22 06:35:15;;;;;;;0.00;0.00;;;;;;;8.43;67.84;98630.88;7356220;19;20877;-58
2023/03/22 06:37:41;;;;;;;0.00;0.00;;;;;;;8.42;67.82;98635.25;7357433;19;20003;-58
2023/03/22 06:40:08;;;;;;;0.08;0.08;;;;;;;8.41;67.67;98611.88;7355640;19;20007;-58
2023/03/22 06:42:34;;;;;;;0.10;0.10;;;;;;;8.40;67.68;98623.22;7356309;19;20021;-58
2023/03/22 06:45:00;;;;;;;0.05;0.05;;;;;;;8.41;67.74;98609.28;7353135;19;20039;-58
2023/03/22 06:47:26;;;;;;;0.00;0.00;;;;;;;8.43;67.53;98618.72;7356594;19;20002;-58
2023/03/22 06:49:51;;;;;;;0.00;0.00;;;;;;;8.44;67.80;98615.19;7354944;19;20026;-59
2023/03/22 06:52:17;;;;;;;0.00;0.00;;;;;;;8.44;67.12;98628.19;7358191;19;20040;-58
2023/03/22 06:54:42;;;;;;;0.00;0.00;;;;;;;8.44;67.68;98602.19;7352831;19;20055;-57
2023/03/22 06:57:07;;;;;;;0.10;0.10;;;;;;;8.45;67.46;98603.88;7356859;19;20014;-58
2023/03/22 06:59:33;;;;;;;0.10;0.10;;;;;;;8.46;67.09;98595.13;7343210;19;20027;-58
2023/03/22 07:01:59;;;;;;;0.00;0.00;;;;;;;8.49;67.35;98609.78;7351152;19;20074;-58
2023/03/22 07:04:24;;;;;;;0.00;0.00;;;;;;;8.51;66.78;98600.13;7354239;19;20090;-59
2023/03/22 07:06:50;;;;;;;0.03;0.03;;;;;;;8.53;66.94;98603.53;7351475;19;20014;-58
2023/03/22 07:09:16;;;;;;;0.00;0.00;;;;;;;8.55;66.41;98599.06;7352987;19;20032;-58
2023/03/22 07:11:42;;;;;;;0.08;0.08;;;;;;;8.56;66.21;98596.38;7352807;19;20539;-59
2023/03/22 07:14:07;;;;;;;0.00;0.00;;;;;;;8.61;66.81;98608.34;7352374;19;20093;-58
2023/03/22 07:16:33;;;;;;;0.00;0.00;;;;;;;8.64;66.33;98592.59;7351733;19;20018;-58
2023/03/22 07:18:58;;;;;;;0.00;0.00;;;;;;;8.66;65.68;98591.59;7354610;19;20010;-58
2023/03/22 07:21:24;;;;;;;0.00;0.00;;;;;;;8.68;65.99;98578.53;7348380;19;20014;-58
2023/03/22 07:23:49;;;;;;;0.00;0.00;;;;;;;8.70;66.04;98587.91;7348413;19;20459;-58
2023/03/22 07:26:15;;;;;;;0.05;0.05;;;;;;;8.69;66.07;98575.00;7349686;19;20018;-58
2023/03/22 07:28:43;;;;;;;0.00;0.00;;;;;;;8.74;66.42;98583.41;7350095;19;20022;-59
2023/03/22 07:31:10;;;;;;;0.08;0.08;;;;;;;8.74;66.17;98578.22;7352562;19;20014;-59
2023/03/22 07:33:36;;;;;;;0.00;0.00;;;;;;;8.77;65.80;98578.06;7352014;19;20010;-58
2023/03/22 07:36:03;;;;;;;0.10;0.10;;;;;;;8.81;65.80;98597.81;7351492;19;20013;-58
2023/03/22 07:38:29;;;;;;;0.08;0.08;;;;;;;8.83;66.12;98582.97;7351435;19;20244;-58
2023/03/22 07:40:54;;;;;;;0.10;0.10;;;;;;;8.89;66.27;98574.00;7355017;19;20527;-58
2023/03/22 07:43:21;;;;;;;0.05;0.05;;;;;;;8.95;65.51;98582.34;7348526;19;20078;-58
2023/03/22 07:45:50;;;;;;;0.00;0.00;;;;;;;8.92;65.61;98559.09;7354459;19;20047;-58
2023/03/22 07:48:17;;;;;;;0.00;0.00;;;;;;;9.01;65.30;98584.63;7350572;19;20033;-58
2023/03/22 07:50:43;;;;;;;0.10;0.10;;;;;;;9.06;65.51;98580.03;7353473;19;20042;-57
2023/03/22 07:53:09;;;;;;;0.00;0.00;;;;;;;9.10;64.66;98589.38;7343705;19;20018;-59
2023/03/22 07:55:35;;;;;;;0.00;0.00;;;;;;;9.14;64.60;98571.03;7335946;19;20033;-60
2023/03/22 07:58:00;;;;;;;0.00;0.00;;;;;;;9.21;64.82;98577.59;7327689;19;20018;-61
2023/03/22 08:00:26;;;;;;;0.00;0.00;;;;;;;9.22;64.22;98584.47;7354374;19;20011;-61
2023/03/22 08:02:51;;;;;;;0.00;0.00;;;;;;;9.32;63.94;98581.31;7352805;19;20022;-61
2023/03/22 08:05:17;;;;;;;0.10;0.10;;;;;;;9.38;64.10;98601.03;7350360;19;20538;-61
2023/03/22 08:07:42;;;;;;;0.10;0.10;;;;;;;9.44;63.43;98597.25;7353033;19;20021;-61
2023/03/22 08:10:08;;;;;;;0.00;0.00;;;;;;;9.49;63.78;98577.03;7353638;19;20007;-61
2023/03/22 08:12:33;;;;;;;0.00;0.00;;;;;;;9.55;63.96;98574.94;7352481;19;20020;-61
2023/03/22 08:14:59;;;;;;;0.00;0.00;;;;;;;9.66;63.83;98581.34;7353423;19;20010;-61
2023/03/22 08:17:25;;;;;;;0.10;0.10;;;;;;;9.76;63.03;98583.38;7349837;19;20482;-61
2023/03/22 08:19:53;;;;;;;0.00;0.00;;;;;;;9.88;62.85;98584.47;7350826;19;20454;-61
2023/03/22 08:22:24;;;;;;;0.00;0.00;;;;;;;9.97;62.96;98607.44;7353400;19;20006;-61
2023/03/22 08:24:49;;;;;;;0.10;0.10;;;;;;;10.10;62.05;98590.22;7351970;19;20045;-61
2023/03/22 08:27:16;;;;;;;0.03;0.03;;;;;;;10.19;62.49;98588.03;7351402;19;20891;-61
2023/03/22 08:29:41;;;;;;;0.00;0.00;;;;;;;10.30;61.78;98585.72;7354247;19;20006;-61
2023/03/22 08:32:07;;;;;;;0.00;0.00;;;;;;;10.37;61.73;98571.41;7353331;19;20533;-61
2023/03/22 08:34:36;;;;;;;0.00;0.00;;;;;;;10.53;61.90;98580.03;7350932;19;20567;-61
2023/03/22 08:37:05;;;;;;;0.03;0.03;;;;;;;10.54;61.20;98558.25;7356496;19;20014;-61
2023/03/22 08:39:30;;;;;;;0.00;0.00;;;;;;;10.80;60.66;98587.25;7351723;19;20051;-61
2023/03/22 08:41:56;;;;;;;0.00;0.00;;;;;;;10.94;59.79;98566.38;7353658;19;20361;-61
2023/03/22 08:44:21;;;;;;;0.00;0.00;;;;;;;10.99;60.07;98577.41;7353455;19;20094;-61
2023/03/22 08:46:47;;;;;;;0.10;0.10;;;;;;;11.17;60.18;98573.72;7356535;19;20673;-61
2023/03/22 08:49:13;;;;;;;0.10;0.10;;;;;;;11.32;59.19;98576.38;7354988;19;20845;-59
2023/03/22 08:51:39;;;;;;;0.08;0.08;;;;;;;11.44;60.02;98604.34;7356707;19;20011;-61
2023/03/22 08:54:04;;;;;;;0.05;0.05;;;;;;;11.60;58.71;98576.34;7342244;19;20803;-61
2023/03/22 08:56:31;;;;;;;0.00;0.00;;;;;;;11.75;57.84;98571.13;7350018;19;20089;-61
2023/03/22 08:58:56;;;;;;;0.10;0.10;;;;;;;11.84;57.52;98562.75;7355221;19;20013;-61
2023/03/22 09:01:22;;;;;;;0.00;0.00;;;;;;;11.92;57.82;98563.13;7357437;19;20010;-61
2023/03/22 09:03:47;;;;;;;0.00;0.00;;;;;;;11.97;57.95;98555.84;7347815;19;20034;-61
2023/03/22 09:06:13;;;;;;;0.05;0.05;;;;;;;11.98;57.59;98554.91;7357839;19;20030;-61
2023/03/22 09:08:40;;;;;;;0.00;0.00;;;;;;;12.03;57.67;98565.91;7360330;19;21436;-61
2023/03/22 09:11:08;;;;;;;0.10;0.10;;;;;;;11.72;57.28;98508.59;7362611;19;20921;-63
2023/03/22 09:13:33;;;;;;;0.10;0.10;;;;;;;12.10;57.56;98564.56;7356358;19;20014;-64
2023/03/22 09:15:59;;;;;;;0.10;0.10;;;;;;;12.15;57.58;98556.44;7361188;19;20673;-64
2023/03/22 09:18:25;;;;;;;0.00;0.00;;;;;;;12.30;59.03;98555.47;7359612;19;20006;-63
2023/03/22 09:20:51;;;;;;;0.10;0.10;;;;;;;12.49;58.06;98557.75;7359900;19;20006;-60
2023/03/22 09:23:17;;;;;;;0.05;0.05;;;;;;;12.61;58.11;98556.94;7360476;19;20470;-60
2023/03/22 09:25:43;;;;;;;0.00;0.00;;;;;;;12.78;56.28;98565.50;7360215;19;20014;-59
2023/03/22 09:28:09;;;;;;;0.00;0.00;;;;;;;12.90;55.88;98552.41;7357765;19;20018;-61
2023/03/22 09:30:35;;;;;;;0.00;0.00;;;;;;;12.97;55.24;98537.09;7363567;19;20484;-60
2023/03/22 09:33:05;;;;;;;0.10;0.10;;;;;;;13.02;54.96;98553.34;7357227;19;20017;-60
2023/03/22 09:35:31;;;;;;;0.10;0.10;;;;;;;13.03;54.46;98547.19;7355497;19;20038;-60
2023/03/22 09:37:57;;;;;;;0.10;0.10;;;;;;;12.99;55.15;98543.09;7358316;19;20427;-58
2023/03/22 09:40:27;;;;;;;0.10;0.10;;;;;;;13.21;54.04;98543.34;7353678;19;20051;-59
2023/03/22 09:42:56;;;;;;;0.10;0.10;;;;;;;13.18;54.13;98532.22;7351210;19;20774;-59
2023/03/22 09:45:33;;;;;;;0.10;0.10;;;;;;;13.31;54.50;98534.88;7341742;19;20565;-60
2023/03/22 09:48:00;;;;;;;0.00;0.00;;;;;;;13.32;54.59;98533.91;7355259;19;20014;-60
2023/03/22 09:50:30;;;;;;;0.10;0.10;;;;;;;13.42;54.10;98551.53;7354802;19;20033;-62
2023/03/22 09:52:56;;;;;;;0.00;0.00;;;;;;;13.39;53.21;98527.34;7352980;19;20840;-61
2023/03/22 09:55:36;;;;;;;0.10;0.10;;;;;;;13.62;53.46;98531.81;7349133;19;20764;-60
2023/03/22 09:58:21;;;;;;;0.10;0.10;;;;;;;13.77;53.32;98546.47;7353277;19;20808;-60
2023/03/22 10:00:59;;;;;;;0.10;0.10;;;;;;;13.87;52.77;98548.44;7355359;19;20017;-60
2023/03/22 10:03:46;;;;;;;0.10;0.10;;;;;;;13.98;52.65;98556.38;7350514;19;20015;-61
2023/03/22 10:06:21;;;;;;;0.05;0.05;;;;;;;13.98;53.57;98559.84;7355490;19;20047;-60
2023/03/22 10:08:52;;;;;;;0.00;0.00;;;;;;;14.14;52.84;98554.38;7353286;19;20011;-61
2023/03/22 10:11:20;;;;;;;0.00;0.00;;;;;;;14.27;52.56;98549.91;7351363;19;20049;-61
2023/03/22 10:14:03;;;;;;;0.10;0.10;;;;;;;14.39;53.53;98539.44;7349345;19;20108;-60
2023/03/22 10:16:33;;;;;;;0.10;0.10;;;;;;;14.47;51.43;98529.25;7356993;19;20031;-60
2023/03/22 10:19:16;;;;;;;0.00;0.00;;;;;;;14.78;52.26;98586.47;7350946;19;20011;-60
2023/03/22 10:21:43;;;;;;;0.00;0.00;;;;;;;15.05;51.30;98557.31;7354929;19;20622;-61
2023/03/22 10:24:16;;;;;;;0.00;0.00;;;;;;;15.23;49.96;98546.34;7356880;19;20042;-60
2023/03/22 10:26:46;;;;;;;0.10;0.10;;;;;;;15.36;49.14;98543.63;7351993;19;20629;-60
2023/03/22 10:29:27;;;;;;;0.10;0.10;;;;;;;15.47;49.90;98547.13;7354735;19;20018;-60
2023/03/22 10:31:54;;;;;;;0.03;0.03;;;;;;;15.38;49.27;98520.69;7353504;19;20162;-60
2023/03/22 10:34:32;;;;;;;0.10;0.10;;;;;;;15.47;49.71;98533.97;7355055;19;20160;-57
2023/03/22 10:37:02;;;;;;;0.10;0.10;;;;;;;15.42;50.26;98522.97;7354448;19;20014;-60
2023/03/22 10:39:35;;;;;;;0.10;0.10;;;;;;;15.64;50.27;98511.63;7355270;19;20028;-60
2023/03/22 10:42:11;;;;;;;0.10;0.10;;;;;;;15.82;49.71;98519.88;7356641;19;20644;-60
2023/03/22 10:44:49;;;;;;;0.10;0.10;;;;;;;15.96;50.69;98521.41;7352591;19;20017;-60
2023/03/22 10:47:18;;;;;;;0.10;0.10;;;;;;;16.09;49.98;98516.84;7354904;19;20006;-61
2023/03/22 10:49:48;;;;;;;0.10;0.10;;;;;;;16.32;50.48;98523.72;7350472;19;20096;-61
2023/03/22 10:52:30;;;;;;;0.08;0.08;;;;;;;16.66;50.42;98488.50;7353440;19;20038;-61
2023/03/22 10:54:56;;;;;;;0.10;0.10;;;;;;;16.83;48.52;98517.81;7353022;19;20010;-61
2023/03/22 10:57:27;;;;;;;0.10;0.10;;;;;;;17.03;47.29;98510.88;7353181;19;20041;-57
2023/03/22 10:59:56;;;;;;;0.10;0.10;;;;;;;17.25;45.93;98509.88;7355111;19;20034;-59
2023/03/22 11:02:29;;;;;;;0.10;0.10;;;;;;;17.28;46.44;98501.69;7355335;19;20010;-61
2023/03/22 11:05:04;;;;;;;0.10;0.10;;;;;;;17.54;47.62;98519.75;7347315;19;20662;-61
2023/03/22 11:07:35;;;;;;;0.10;0.10;;;;;;;17.70;46.39;98485.78;7354243;19;20023;-61
2023/03/22 11:10:09;;;;;;;0.10;0.10;;;;;;;17.94;46.36;98529.50;7353309;19;20010;-61
2023/03/22 11:12:48;;;;;;;0.10;0.10;;;;;;;18.10;45.92;98487.56;7350872;19;20014;-61
2023/03/22 11:15:35;;;;;;;0.10;0.10;;;;;;;18.27;46.59;98486.91;7351786;19;20015;-61
2023/03/22 11:18:13;;;;;;;0.10;0.10;;;;;;;18.50;45.73;98490.13;7352935;19;20011;-61
2023/03/22 11:20:51;;;;;;;0.10;0.10;;;;;;;18.69;45.38;98486.66;7352137;19;20007;-61
2023/03/22 11:23:20;;;;;;;0.10;0.10;;;;;;;18.82;43.60;98483.72;7353839;19;21026;-61
2023/03/22 11:25:47;;;;;;;0.10;0.10;;;;;;;18.92;43.14;98474.78;7353359;19;20029;-61
2023/03/22 11:28:15;;;;;;;0.10;0.10;;;;;;;18.93;43.87;98494.16;7354555;19;20044;-61
2023/03/22 11:31:04;;;;;;;0.10;0.10;;;;;;;19.06;44.46;98491.19;7351501;19;20014;-60
2023/03/22 11:33:30;;;;;;;0.10;0.10;;;;;;;19.04;43.08;98471.97;7353838;19;20020;-61
2023/03/22 11:35:58;;;;;;;0.10;0.10;;;;;;;19.14;43.72;98462.22;7353515;19;20022;-61
2023/03/22 11:38:38;;;;;;;0.00;0.00;;;;;;;19.34;43.75;98447.94;7354200;19;20642;-61
2023/03/22 11:41:20;;;;;;;0.05;0.05;;;;;;;19.62;43.04;98470.00;7353897;19;20017;-61
2023/03/22 11:43:49;;;;;;;0.10;0.10;;;;;;;19.70;41.97;98454.19;7350783;19;20021;-61
2023/03/22 11:46:18;;;;;;;0.10;0.10;;;;;;;19.77;41.52;98443.88;7350720;19;20014;-60